Aviation Digital Data Service (ADDS)

Output produced by METARs form (0827 UTC 01 March 2015)
found at http://aviationweather.gov/adds/metars/
 
KFRG 010753Z AUTO 00000KT 10SM CLR M10/M14 A3070 RMK AO2 SLP397 T11001139
KISP 010756Z AUTO 00000KT 10SM CLR M09/M14 A3069 RMK AO2 SLP392 T10941144
KISP 010520Z 0106/0206 VRB03KT P6SM SCT250 
     FM010900 VRB02KT P6SM BKN100 
     FM011200 VRB02KT P6SM OVC070 
     FM011500 17004KT 4SM -SN SCT025 OVC040 
     FM011700 17007KT 2SM -SN OVC015 
     FM012200 17006KT 1SM -SN OVC008 
     FM020300 VRB04KT 1SM -FZRASN OVC008
       
KJFK 010751Z 25003KT 10SM SCT250 M05/M14 A3071 RMK AO2 SLP398 T10501144 $
KJFK 010520Z 0106/0212 VRB04KT P6SM SCT250 
     FM010800 VRB03KT P6SM BKN100 
     FM011100 VRB03KT P6SM OVC070 
     FM011400 17005KT 4SM -SN SCT025 OVC040 
     FM011600 18008KT 2SM -SN OVC015 
     FM012100 17006KT 1SM -SN OVC008 
     FM020300 VRB04KT 1SM -FZRASN OVC008 
     FM020600 27008KT 4SM BR OVC010
       
KBDR 010752Z AUTO 00000KT 10SM CLR M11/M16 A3071 RMK AO2 SLP397 T11061156
KBDR 010520Z 0106/0206 VRB03KT P6SM SCT250 
     FM010900 VRB02KT P6SM BKN100 
     FM011200 VRB02KT P6SM OVC070 
     FM011500 17004KT 4SM -SN SCT025 OVC040 
     FM011700 17006KT 2SM -SN OVC015 
     FM012200 17005KT 1SM -SN OVC008 
     FM020300 VRB03KT 1SM -FZRASN OVC008